sensor_id;sensor_type;location;lat;lon;timestamp;temperature;humidity
9907;DHT22;4992;51.628;6.664;2022-12-18T00:01:43;-7.80;99.90
9907;DHT22;4992;51.628;6.664;2022-12-18T00:04:20;-7.90;99.90
9907;DHT22;4992;51.628;6.664;2022-12-18T00:06:46;-7.80;99.90
9907;DHT22;4992;51.628;6.664;2022-12-18T00:09:11;-7.80;99.90
9907;DHT22;4992;51.628;6.664;2022-12-18T00:11:37;-7.80;99.90
9907;DHT22;4992;51.628;6.664;2022-12-18T00:14:02;-7.90;99.90
9907;DHT22;4992;51.628;6.664;2022-12-18T00:16:29;-7.90;99.90
9907;DHT22;4992;51.628;6.664;2022-12-18T00:18:56;-7.90;99.90
9907;DHT22;4992;51.628;6.664;2022-12-18T00:21:23;-7.90;99.90
9907;DHT22;4992;51.628;6.664;2022-12-18T00:23:50;-7.90;99.90
9907;DHT22;4992;51.628;6.664;2022-12-18T00:26:20;-7.90;99.90
9907;DHT22;4992;51.628;6.664;2022-12-18T00:28:46;-7.90;99.90
9907;DHT22;4992;51.628;6.664;2022-12-18T00:31:18;-7.90;99.90
9907;DHT22;4992;51.628;6.664;2022-12-18T00:33:44;-8.00;99.90
9907;DHT22;4992;51.628;6.664;2022-12-18T00:36:14;-8.10;99.90
9907;DHT22;4992;51.628;6.664;2022-12-18T00:38:40;-8.20;99.90
9907;DHT22;4992;51.628;6.664;2022-12-18T00:41:08;-8.30;99.90
9907;DHT22;4992;51.628;6.664;2022-12-18T00:43:35;-8.30;99.90
9907;DHT22;4992;51.628;6.664;2022-12-18T00:46:00;-8.40;99.90
9907;DHT22;4992;51.628;6.664;2022-12-18T00:48:26;-8.40;99.90
9907;DHT22;4992;51.628;6.664;2022-12-18T00:50:52;-8.40;99.90
9907;DHT22;4992;51.628;6.664;2022-12-18T00:53:17;-8.30;99.90
9907;DHT22;4992;51.628;6.664;2022-12-18T00:55:43;-8.20;99.90
9907;DHT22;4992;51.628;6.664;2022-12-18T00:58:10;-8.20;99.90
9907;DHT22;4992;51.628;6.664;2022-12-18T01:00:36;-8.10;99.90
9907;DHT22;4992;51.628;6.664;2022-12-18T01:03:03;-8.10;99.90
9907;DHT22;4992;51.628;6.664;2022-12-18T01:05:29;-8.10;99.90
9907;DHT22;4992;51.628;6.664;2022-12-18T01:07:55;-8.10;99.90
9907;DHT22;4992;51.628;6.664;2022-12-18T01:10:21;-8.10;99.90
9907;DHT22;4992;51.628;6.664;2022-12-18T01:12:46;-8.10;99.90
9907;DHT22;4992;51.628;6.664;2022-12-18T01:15:13;-8.10;99.90
9907;DHT22;4992;51.628;6.664;2022-12-18T01:17:39;-8.10;99.90
9907;DHT22;4992;51.628;6.664;2022-12-18T01:20:04;-8.20;99.90
9907;DHT22;4992;51.628;6.664;2022-12-18T01:22:30;-8.20;99.90
9907;DHT22;4992;51.628;6.664;2022-12-18T01:24:56;-8.30;99.90
9907;DHT22;4992;51.628;6.664;2022-12-18T01:27:21;-8.30;99.90
9907;DHT22;4992;51.628;6.664;2022-12-18T01:29:47;-8.30;99.90
9907;DHT22;4992;51.628;6.664;2022-12-18T01:32:12;-8.30;99.90
9907;DHT22;4992;51.628;6.664;2022-12-18T01:34:38;-8.30;99.90
9907;DHT22;4992;51.628;6.664;2022-12-18T01:37:04;-8.30;99.90
9907;DHT22;4992;51.628;6.664;2022-12-18T01:39:30;-8.30;99.90
9907;DHT22;4992;51.628;6.664;2022-12-18T01:41:58;-8.40;99.90
9907;DHT22;4992;51.628;6.664;2022-12-18T01:45:21;-8.40;99.90
9907;DHT22;4992;51.628;6.664;2022-12-18T01:47:55;-8.40;99.90
9907;DHT22;4992;51.628;6.664;2022-12-18T01:52:56;-8.40;99.90
9907;DHT22;4992;51.628;6.664;2022-12-18T01:55:26;-8.40;99.90
9907;DHT22;4992;51.628;6.664;2022-12-18T01:57:57;-8.40;99.90
9907;DHT22;4992;51.628;6.664;2022-12-18T02:00:24;-8.40;99.90
9907;DHT22;4992;51.628;6.664;2022-12-18T02:02:50;-8.40;99.90
9907;DHT22;4992;51.628;6.664;2022-12-18T02:05:37;-8.40;99.90
9907;DHT22;4992;51.628;6.664;2022-12-18T02:08:16;-8.40;99.90
9907;DHT22;4992;51.628;6.664;2022-12-18T02:13:32;-8.50;99.90
9907;DHT22;4992;51.628;6.664;2022-12-18T02:16:17;-8.50;99.90
9907;DHT22;4992;51.628;6.664;2022-12-18T02:18:49;-8.50;99.90
9907;DHT22;4992;51.628;6.664;2022-12-18T02:21:54;-8.60;99.90
9907;DHT22;4992;51.628;6.664;2022-12-18T02:27:11;-8.50;99.90
9907;DHT22;4992;51.628;6.664;2022-12-18T02:29:52;-8.50;99.90
9907;DHT22;4992;51.628;6.664;2022-12-18T02:32:24;-8.50;99.90
9907;DHT22;4992;51.628;6.664;2022-12-18T02:34:51;-8.50;99.90
9907;DHT22;4992;51.628;6.664;2022-12-18T02:37:18;-8.60;99.90
9907;DHT22;4992;51.628;6.664;2022-12-18T02:39:46;-8.60;99.90
9907;DHT22;4992;51.628;6.664;2022-12-18T02:42:13;-8.60;99.90
9907;DHT22;4992;51.628;6.664;2022-12-18T02:44:48;-8.60;99.90
9907;DHT22;4992;51.628;6.664;2022-12-18T02:47:15;-8.60;99.90
9907;DHT22;4992;51.628;6.664;2022-12-18T02:49:58;-8.50;99.90
9907;DHT22;4992;51.628;6.664;2022-12-18T02:55:58;-8.50;99.90
9907;DHT22;4992;51.628;6.664;2022-12-18T03:01:11;-8.60;99.90
9907;DHT22;4992;51.628;6.664;2022-12-18T03:03:42;-8.70;99.90
9907;DHT22;4992;51.628;6.664;2022-12-18T03:06:32;-8.80;99.90
9907;DHT22;4992;51.628;6.664;2022-12-18T03:09:10;-8.80;99.90
9907;DHT22;4992;51.628;6.664;2022-12-18T03:11:40;-8.90;99.90
9907;DHT22;4992;51.628;6.664;2022-12-18T03:14:27;-8.90;99.90
9907;DHT22;4992;51.628;6.664;2022-12-18T03:17:00;-8.90;99.90
9907;DHT22;4992;51.628;6.664;2022-12-18T03:19:28;-8.90;99.90
9907;DHT22;4992;51.628;6.664;2022-12-18T03:21:56;-8.90;99.90
9907;DHT22;4992;51.628;6.664;2022-12-18T03:24:23;-8.90;99.90
9907;DHT22;4992;51.628;6.664;2022-12-18T03:26:53;-8.80;99.90
9907;DHT22;4992;51.628;6.664;2022-12-18T03:29:33;-8.80;99.90
9907;DHT22;4992;51.628;6.664;2022-12-18T03:32:07;-8.70;99.90
9907;DHT22;4992;51.628;6.664;2022-12-18T03:34:38;-8.70;99.90
9907;DHT22;4992;51.628;6.664;2022-12-18T03:37:05;-8.70;99.90
9907;DHT22;4992;51.628;6.664;2022-12-18T03:39:31;-8.70;99.90
9907;DHT22;4992;51.628;6.664;2022-12-18T03:42:15;-8.70;99.90
9907;DHT22;4992;51.628;6.664;2022-12-18T03:44:49;-8.80;99.90
9907;DHT22;4992;51.628;6.664;2022-12-18T03:47:22;-8.80;99.90
9907;DHT22;4992;51.628;6.664;2022-12-18T03:50:16;-8.80;99.90
9907;DHT22;4992;51.628;6.664;2022-12-18T03:52:49;-8.90;99.90
9907;DHT22;4992;51.628;6.664;2022-12-18T03:55:18;-8.90;99.90
9907;DHT22;4992;51.628;6.664;2022-12-18T03:57:46;-9.00;99.90
9907;DHT22;4992;51.628;6.664;2022-12-18T04:00:15;-9.00;99.90
9907;DHT22;4992;51.628;6.664;2022-12-18T04:02:49;-9.00;99.90
9907;DHT22;4992;51.628;6.664;2022-12-18T04:05:17;-9.00;99.90
9907;DHT22;4992;51.628;6.664;2022-12-18T04:07:45;-9.00;99.90
9907;DHT22;4992;51.628;6.664;2022-12-18T04:10:12;-8.90;99.90
9907;DHT22;4992;51.628;6.664;2022-12-18T04:12:38;-8.90;99.90
9907;DHT22;4992;51.628;6.664;2022-12-18T04:15:05;-8.90;99.90
9907;DHT22;4992;51.628;6.664;2022-12-18T04:17:30;-8.90;99.90
9907;DHT22;4992;51.628;6.664;2022-12-18T04:19:56;-8.90;99.90
9907;DHT22;4992;51.628;6.664;2022-12-18T04:22:21;-8.90;99.90
9907;DHT22;4992;51.628;6.664;2022-12-18T04:24:47;-8.90;99.90
9907;DHT22;4992;51.628;6.664;2022-12-18T04:27:12;-8.90;99.90
9907;DHT22;4992;51.628;6.664;2022-12-18T04:29:38;-8.90;99.90
9907;DHT22;4992;51.628;6.664;2022-12-18T04:32:04;-8.90;99.90
9907;DHT22;4992;51.628;6.664;2022-12-18T04:34:29;-8.90;99.90
9907;DHT22;4992;51.628;6.664;2022-12-18T04:36:55;-8.80;99.90
9907;DHT22;4992;51.628;6.664;2022-12-18T04:39:21;-8.80;99.90
9907;DHT22;4992;51.628;6.664;2022-12-18T04:41:46;-8.80;99.90
9907;DHT22;4992;51.628;6.664;2022-12-18T04:44:12;-8.80;99.90
9907;DHT22;4992;51.628;6.664;2022-12-18T04:46:37;-8.80;99.90
9907;DHT22;4992;51.628;6.664;2022-12-18T04:49:03;-8.80;99.90
9907;DHT22;4992;51.628;6.664;2022-12-18T04:51:29;-8.80;99.90
9907;DHT22;4992;51.628;6.664;2022-12-18T04:53:54;-8.70;99.90
9907;DHT22;4992;51.628;6.664;2022-12-18T04:56:20;-8.70;99.90
9907;DHT22;4992;51.628;6.664;2022-12-18T04:58:45;-8.70;99.90
9907;DHT22;4992;51.628;6.664;2022-12-18T05:01:12;-8.70;99.90
9907;DHT22;4992;51.628;6.664;2022-12-18T05:03:38;-8.70;99.90
9907;DHT22;4992;51.628;6.664;2022-12-18T05:06:04;-8.70;99.90
9907;DHT22;4992;51.628;6.664;2022-12-18T05:08:30;-8.70;99.90
9907;DHT22;4992;51.628;6.664;2022-12-18T05:11:05;-8.70;99.90
9907;DHT22;4992;51.628;6.664;2022-12-18T05:13:32;-8.70;99.90
9907;DHT22;4992;51.628;6.664;2022-12-18T05:15:57;-8.80;99.90
9907;DHT22;4992;51.628;6.664;2022-12-18T05:18:23;-8.80;99.90
9907;DHT22;4992;51.628;6.664;2022-12-18T05:20:50;-8.80;99.90
9907;DHT22;4992;51.628;6.664;2022-12-18T05:23:16;-8.80;99.90
9907;DHT22;4992;51.628;6.664;2022-12-18T05:25:42;-8.80;99.90
9907;DHT22;4992;51.628;6.664;2022-12-18T05:28:11;-8.80;99.90
9907;DHT22;4992;51.628;6.664;2022-12-18T05:30:36;-8.80;99.90
9907;DHT22;4992;51.628;6.664;2022-12-18T05:33:02;-8.80;99.90
9907;DHT22;4992;51.628;6.664;2022-12-18T05:35:28;-8.80;99.90
9907;DHT22;4992;51.628;6.664;2022-12-18T05:37:53;-8.80;99.90
9907;DHT22;4992;51.628;6.664;2022-12-18T05:40:19;-8.80;99.90
9907;DHT22;4992;51.628;6.664;2022-12-18T05:42:44;-8.80;99.90
9907;DHT22;4992;51.628;6.664;2022-12-18T05:45:10;-8.80;99.90
9907;DHT22;4992;51.628;6.664;2022-12-18T05:47:35;-8.80;99.90
9907;DHT22;4992;51.628;6.664;2022-12-18T05:50:01;-8.80;99.90
9907;DHT22;4992;51.628;6.664;2022-12-18T05:52:26;-8.80;99.90
9907;DHT22;4992;51.628;6.664;2022-12-18T05:54:52;-8.70;99.90
9907;DHT22;4992;51.628;6.664;2022-12-18T05:57:17;-8.70;99.90
9907;DHT22;4992;51.628;6.664;2022-12-18T05:59:43;-8.70;99.90
9907;DHT22;4992;51.628;6.664;2022-12-18T06:02:08;-8.70;99.90
9907;DHT22;4992;51.628;6.664;2022-12-18T06:04:34;-8.70;99.90
9907;DHT22;4992;51.628;6.664;2022-12-18T06:06:59;-8.70;99.90
9907;DHT22;4992;51.628;6.664;2022-12-18T06:09:25;-8.70;99.90
9907;DHT22;4992;51.628;6.664;2022-12-18T06:11:51;-8.70;99.90
9907;DHT22;4992;51.628;6.664;2022-12-18T06:14:17;-8.80;99.90
9907;DHT22;4992;51.628;6.664;2022-12-18T06:16:43;-8.80;99.90
9907;DHT22;4992;51.628;6.664;2022-12-18T06:19:14;-8.80;99.90
9907;DHT22;4992;51.628;6.664;2022-12-18T06:21:40;-8.80;99.90
9907;DHT22;4992;51.628;6.664;2022-12-18T06:24:06;-8.80;99.90
9907;DHT22;4992;51.628;6.664;2022-12-18T06:26:31;-8.90;99.90
9907;DHT22;4992;51.628;6.664;2022-12-18T06:28:57;-8.90;99.90
9907;DHT22;4992;51.628;6.664;2022-12-18T06:31:22;-8.90;99.90
9907;DHT22;4992;51.628;6.664;2022-12-18T06:33:48;-8.90;99.90
9907;DHT22;4992;51.628;6.664;2022-12-18T06:36:14;-8.90;99.90
9907;DHT22;4992;51.628;6.664;2022-12-18T06:38:41;-8.80;99.90
9907;DHT22;4992;51.628;6.664;2022-12-18T06:41:08;-8.80;99.90
9907;DHT22;4992;51.628;6.664;2022-12-18T06:43:34;-8.80;99.90
9907;DHT22;4992;51.628;6.664;2022-12-18T06:46:00;-8.90;99.90
9907;DHT22;4992;51.628;6.664;2022-12-18T06:48:26;-8.90;99.90
9907;DHT22;4992;51.628;6.664;2022-12-18T06:50:51;-8.90;99.90
9907;DHT22;4992;51.628;6.664;2022-12-18T06:53:17;-8.90;99.90
9907;DHT22;4992;51.628;6.664;2022-12-18T06:55:42;-8.90;99.90
9907;DHT22;4992;51.628;6.664;2022-12-18T06:58:08;-8.90;99.90
9907;DHT22;4992;51.628;6.664;2022-12-18T07:00:34;-8.90;99.90
9907;DHT22;4992;51.628;6.664;2022-12-18T07:02:59;-8.90;99.90
9907;DHT22;4992;51.628;6.664;2022-12-18T07:05:24;-8.90;99.90
9907;DHT22;4992;51.628;6.664;2022-12-18T07:07:50;-9.00;99.90
9907;DHT22;4992;51.628;6.664;2022-12-18T07:10:16;-9.00;99.90
9907;DHT22;4992;51.628;6.664;2022-12-18T07:12:41;-9.00;99.90
9907;DHT22;4992;51.628;6.664;2022-12-18T07:15:07;-9.00;99.90
9907;DHT22;4992;51.628;6.664;2022-12-18T07:17:33;-9.00;99.90
9907;DHT22;4992;51.628;6.664;2022-12-18T07:19:58;-8.90;99.90
9907;DHT22;4992;51.628;6.664;2022-12-18T07:22:25;-8.90;99.90
9907;DHT22;4992;51.628;6.664;2022-12-18T07:24:51;-8.90;99.90
9907;DHT22;4992;51.628;6.664;2022-12-18T07:27:16;-9.00;99.90
9907;DHT22;4992;51.628;6.664;2022-12-18T07:29:42;-9.00;99.90
9907;DHT22;4992;51.628;6.664;2022-12-18T07:32:08;-9.00;99.90
9907;DHT22;4992;51.628;6.664;2022-12-18T07:34:33;-8.90;99.90
9907;DHT22;4992;51.628;6.664;2022-12-18T07:36:59;-8.90;99.90
9907;DHT22;4992;51.628;6.664;2022-12-18T07:39:25;-8.90;99.90
9907;DHT22;4992;51.628;6.664;2022-12-18T07:41:50;-8.90;99.90
9907;DHT22;4992;51.628;6.664;2022-12-18T07:44:35;-8.80;99.90
9907;DHT22;4992;51.628;6.664;2022-12-18T07:47:00;-8.80;99.90
9907;DHT22;4992;51.628;6.664;2022-12-18T07:49:26;-8.80;99.90
9907;DHT22;4992;51.628;6.664;2022-12-18T07:51:54;-8.80;99.90
9907;DHT22;4992;51.628;6.664;2022-12-18T07:54:20;-8.80;99.90
9907;DHT22;4992;51.628;6.664;2022-12-18T07:56:46;-8.80;99.90
9907;DHT22;4992;51.628;6.664;2022-12-18T07:59:11;-8.80;99.90
9907;DHT22;4992;51.628;6.664;2022-12-18T08:01:36;-8.70;99.90
9907;DHT22;4992;51.628;6.664;2022-12-18T08:04:02;-8.70;99.90
9907;DHT22;4992;51.628;6.664;2022-12-18T08:06:27;-8.70;99.90
9907;DHT22;4992;51.628;6.664;2022-12-18T08:08:54;-8.60;99.90
9907;DHT22;4992;51.628;6.664;2022-12-18T08:11:20;-8.60;99.90
9907;DHT22;4992;51.628;6.664;2022-12-18T08:13:46;-8.50;99.90
9907;DHT22;4992;51.628;6.664;2022-12-18T08:16:11;-8.50;99.90
9907;DHT22;4992;51.628;6.664;2022-12-18T08:18:37;-8.40;99.90
9907;DHT22;4992;51.628;6.664;2022-12-18T08:21:23;-8.40;99.90
9907;DHT22;4992;51.628;6.664;2022-12-18T08:23:50;-8.30;99.90
9907;DHT22;4992;51.628;6.664;2022-12-18T08:26:16;-8.20;99.90
9907;DHT22;4992;51.628;6.664;2022-12-18T08:28:42;-8.10;99.90
9907;DHT22;4992;51.628;6.664;2022-12-18T08:31:08;-8.00;99.90
9907;DHT22;4992;51.628;6.664;2022-12-18T08:33:34;-7.90;99.90
9907;DHT22;4992;51.628;6.664;2022-12-18T08:36:01;-7.90;99.90
9907;DHT22;4992;51.628;6.664;2022-12-18T08:38:27;-7.70;99.90
9907;DHT22;4992;51.628;6.664;2022-12-18T08:41:07;-7.70;99.90
9907;DHT22;4992;51.628;6.664;2022-12-18T08:43:33;-7.60;99.90
9907;DHT22;4992;51.628;6.664;2022-12-18T08:46:19;-7.40;99.90
9907;DHT22;4992;51.628;6.664;2022-12-18T08:48:44;-7.30;99.90
9907;DHT22;4992;51.628;6.664;2022-12-18T08:51:10;-7.20;99.90
9907;DHT22;4992;51.628;6.664;2022-12-18T08:53:36;-7.10;99.90
9907;DHT22;4992;51.628;6.664;2022-12-18T08:56:03;-7.00;99.90
9907;DHT22;4992;51.628;6.664;2022-12-18T08:58:29;-6.90;99.90
9907;DHT22;4992;51.628;6.664;2022-12-18T09:01:00;-6.70;99.90
9907;DHT22;4992;51.628;6.664;2022-12-18T09:03:27;-6.70;99.90
9907;DHT22;4992;51.628;6.664;2022-12-18T09:05:53;-6.50;99.90
9907;DHT22;4992;51.628;6.664;2022-12-18T09:08:18;-6.40;99.90
9907;DHT22;4992;51.628;6.664;2022-12-18T09:10:45;-6.30;99.90
9907;DHT22;4992;51.628;6.664;2022-12-18T09:13:12;-6.20;99.90
9907;DHT22;4992;51.628;6.664;2022-12-18T09:15:45;-6.00;99.90
9907;DHT22;4992;51.628;6.664;2022-12-18T09:18:13;-5.90;99.90
9907;DHT22;4992;51.628;6.664;2022-12-18T09:20:39;-5.80;99.90
9907;DHT22;4992;51.628;6.664;2022-12-18T09:23:05;-5.70;99.90
9907;DHT22;4992;51.628;6.664;2022-12-18T09:25:32;-5.60;99.90
9907;DHT22;4992;51.628;6.664;2022-12-18T09:27:59;-5.50;99.90
9907;DHT22;4992;51.628;6.664;2022-12-18T09:30:25;-5.40;99.90
9907;DHT22;4992;51.628;6.664;2022-12-18T09:32:54;-5.30;99.90
9907;DHT22;4992;51.628;6.664;2022-12-18T09:35:20;-5.20;99.90
9907;DHT22;4992;51.628;6.664;2022-12-18T09:37:46;-5.10;99.90
9907;DHT22;4992;51.628;6.664;2022-12-18T09:40:20;-4.90;99.90
9907;DHT22;4992;51.628;6.664;2022-12-18T09:42:52;-4.90;99.90
9907;DHT22;4992;51.628;6.664;2022-12-18T09:45:19;-4.70;99.90
9907;DHT22;4992;51.628;6.664;2022-12-18T09:47:47;-4.70;99.90
9907;DHT22;4992;51.628;6.664;2022-12-18T09:50:35;-4.60;99.90
9907;DHT22;4992;51.628;6.664;2022-12-18T09:53:14;-4.50;99.90
9907;DHT22;4992;51.628;6.664;2022-12-18T09:55:43;-4.30;99.90
9907;DHT22;4992;51.628;6.664;2022-12-18T10:00:35;-4.10;99.90
9907;DHT22;4992;51.628;6.664;2022-12-18T10:03:10;-4.00;99.90
9907;DHT22;4992;51.628;6.664;2022-12-18T10:11:29;-3.70;99.90
9907;DHT22;4992;51.628;6.664;2022-12-18T10:14:06;-3.60;99.90
9907;DHT22;4992;51.628;6.664;2022-12-18T10:19:26;-3.40;99.90
9907;DHT22;4992;51.628;6.664;2022-12-18T10:22:19;-3.30;99.90
9907;DHT22;4992;51.628;6.664;2022-12-18T10:27:26;-3.20;99.90
9907;DHT22;4992;51.628;6.664;2022-12-18T10:29:53;-3.10;99.90
9907;DHT22;4992;51.628;6.664;2022-12-18T10:32:22;-3.00;99.90
9907;DHT22;4992;51.628;6.664;2022-12-18T10:34:50;-2.90;99.90
9907;DHT22;4992;51.628;6.664;2022-12-18T10:37:17;-2.80;99.90
9907;DHT22;4992;51.628;6.664;2022-12-18T10:39:43;-2.80;99.90
9907;DHT22;4992;51.628;6.664;2022-12-18T10:42:18;-2.70;99.90
9907;DHT22;4992;51.628;6.664;2022-12-18T10:44:44;-2.60;99.90
9907;DHT22;4992;51.628;6.664;2022-12-18T10:47:14;-2.50;99.90
9907;DHT22;4992;51.628;6.664;2022-12-18T10:49:47;-2.50;99.90
9907;DHT22;4992;51.628;6.664;2022-12-18T10:52:20;-2.40;99.90
9907;DHT22;4992;51.628;6.664;2022-12-18T10:54:48;-2.30;99.90
9907;DHT22;4992;51.628;6.664;2022-12-18T10:57:35;-2.20;99.90
9907;DHT22;4992;51.628;6.664;2022-12-18T11:00:30;-2.10;99.90
9907;DHT22;4992;51.628;6.664;2022-12-18T11:02:56;-2.10;99.90
9907;DHT22;4992;51.628;6.664;2022-12-18T11:05:32;-2.00;99.90
9907;DHT22;4992;51.628;6.664;2022-12-18T11:07:59;-1.90;99.90
9907;DHT22;4992;51.628;6.664;2022-12-18T11:10:31;-1.80;99.90
9907;DHT22;4992;51.628;6.664;2022-12-18T11:13:10;-1.80;99.90
9907;DHT22;4992;51.628;6.664;2022-12-18T11:15:36;-1.70;99.90
9907;DHT22;4992;51.628;6.664;2022-12-18T11:18:02;-1.70;99.90
9907;DHT22;4992;51.628;6.664;2022-12-18T11:20:32;-1.60;99.90
9907;DHT22;4992;51.628;6.664;2022-12-18T11:23:11;-1.60;99.90
9907;DHT22;4992;51.628;6.664;2022-12-18T11:25:38;-1.60;99.90
9907;DHT22;4992;51.628;6.664;2022-12-18T11:28:25;-1.50;99.90
9907;DHT22;4992;51.628;6.664;2022-12-18T11:33:34;-1.40;99.90
9907;DHT22;4992;51.628;6.664;2022-12-18T11:36:02;-1.40;99.90
9907;DHT22;4992;51.628;6.664;2022-12-18T11:38:35;-1.40;99.90
9907;DHT22;4992;51.628;6.664;2022-12-18T11:44:26;-1.30;99.90
9907;DHT22;4992;51.628;6.664;2022-12-18T11:47:00;-1.30;99.90
9907;DHT22;4992;51.628;6.664;2022-12-18T11:49:33;-1.30;99.90
9907;DHT22;4992;51.628;6.664;2022-12-18T11:52:15;-1.20;99.90
9907;DHT22;4992;51.628;6.664;2022-12-18T11:54:42;-1.20;99.90
9907;DHT22;4992;51.628;6.664;2022-12-18T12:03:27;-1.10;99.90
9907;DHT22;4992;51.628;6.664;2022-12-18T12:06:12;-0.90;99.90
9907;DHT22;4992;51.628;6.664;2022-12-18T12:09:04;-0.90;99.90
9907;DHT22;4992;51.628;6.664;2022-12-18T12:14:54;-0.80;99.90
9907;DHT22;4992;51.628;6.664;2022-12-18T12:17:51;-0.80;99.90
9907;DHT22;4992;51.628;6.664;2022-12-18T12:20:26;-0.70;99.90
9907;DHT22;4992;51.628;6.664;2022-12-18T12:26:01;-0.70;99.90
9907;DHT22;4992;51.628;6.664;2022-12-18T12:31:30;-0.70;99.90
9907;DHT22;4992;51.628;6.664;2022-12-18T12:39:32;-0.60;99.90
9907;DHT22;4992;51.628;6.664;2022-12-18T12:42:01;-0.60;99.90
9907;DHT22;4992;51.628;6.664;2022-12-18T12:44:53;-0.50;99.90
9907;DHT22;4992;51.628;6.664;2022-12-18T12:47:31;-0.50;99.90
9907;DHT22;4992;51.628;6.664;2022-12-18T12:49:59;-0.50;99.90
9907;DHT22;4992;51.628;6.664;2022-12-18T12:54:56;-0.50;99.90
9907;DHT22;4992;51.628;6.664;2022-12-18T12:57:31;-0.50;99.90
9907;DHT22;4992;51.628;6.664;2022-12-18T13:00:09;-0.40;99.90
9907;DHT22;4992;51.628;6.664;2022-12-18T13:02:46;-0.40;99.90
9907;DHT22;4992;51.628;6.664;2022-12-18T13:08:05;-0.40;99.90
9907;DHT22;4992;51.628;6.664;2022-12-18T13:10:33;-0.30;99.90
9907;DHT22;4992;51.628;6.664;2022-12-18T13:13:10;-0.40;99.90
9907;DHT22;4992;51.628;6.664;2022-12-18T13:15:48;-0.40;99.90
9907;DHT22;4992;51.628;6.664;2022-12-18T13:18:22;-0.30;99.90
9907;DHT22;4992;51.628;6.664;2022-12-18T13:21:04;-0.30;99.90
9907;DHT22;4992;51.628;6.664;2022-12-18T13:23:35;-0.20;99.90
9907;DHT22;4992;51.628;6.664;2022-12-18T13:34:16;0.10;99.90
9907;DHT22;4992;51.628;6.664;2022-12-18T13:36:42;0.20;99.90
9907;DHT22;4992;51.628;6.664;2022-12-18T13:41:43;0.40;99.90
9907;DHT22;4992;51.628;6.664;2022-12-18T13:44:33;0.50;99.90
9907;DHT22;4992;51.628;6.664;2022-12-18T13:46:59;0.60;99.90
9907;DHT22;4992;51.628;6.664;2022-12-18T13:49:39;0.60;99.90
9907;DHT22;4992;51.628;6.664;2022-12-18T13:52:33;0.60;99.90
9907;DHT22;4992;51.628;6.664;2022-12-18T13:55:02;0.60;99.90
9907;DHT22;4992;51.628;6.664;2022-12-18T13:59:58;0.70;99.90
9907;DHT22;4992;51.628;6.664;2022-12-18T14:02:25;0.80;99.90
9907;DHT22;4992;51.628;6.664;2022-12-18T14:04:51;0.80;99.90
9907;DHT22;4992;51.628;6.664;2022-12-18T14:07:21;0.80;99.90
9907;DHT22;4992;51.628;6.664;2022-12-18T14:09:50;0.80;99.90
9907;DHT22;4992;51.628;6.664;2022-12-18T14:12:22;0.90;99.90
9907;DHT22;4992;51.628;6.664;2022-12-18T14:18:14;0.90;99.90
9907;DHT22;4992;51.628;6.664;2022-12-18T14:20:44;0.90;99.90
9907;DHT22;4992;51.628;6.664;2022-12-18T14:23:39;1.00;99.90
9907;DHT22;4992;51.628;6.664;2022-12-18T14:28:46;1.00;99.90
9907;DHT22;4992;51.628;6.664;2022-12-18T14:31:25;1.00;99.90
9907;DHT22;4992;51.628;6.664;2022-12-18T14:33:52;1.00;99.90
9907;DHT22;4992;51.628;6.664;2022-12-18T14:36:21;1.00;99.90
9907;DHT22;4992;51.628;6.664;2022-12-18T14:38:49;1.00;99.90
9907;DHT22;4992;51.628;6.664;2022-12-18T14:41:17;1.00;99.90
9907;DHT22;4992;51.628;6.664;2022-12-18T14:43:44;1.00;99.90
9907;DHT22;4992;51.628;6.664;2022-12-18T14:46:32;1.00;99.90
9907;DHT22;4992;51.628;6.664;2022-12-18T14:49:02;1.00;99.90
9907;DHT22;4992;51.628;6.664;2022-12-18T14:51:30;1.00;99.90
9907;DHT22;4992;51.628;6.664;2022-12-18T14:53:58;1.00;99.90
9907;DHT22;4992;51.628;6.664;2022-12-18T14:56:35;1.00;99.90
9907;DHT22;4992;51.628;6.664;2022-12-18T14:59:11;1.00;99.90
9907;DHT22;4992;51.628;6.664;2022-12-18T15:09:37;1.00;99.90
9907;DHT22;4992;51.628;6.664;2022-12-18T15:12:03;0.90;99.90
9907;DHT22;4992;51.628;6.664;2022-12-18T15:17:15;1.00;99.90
9907;DHT22;4992;51.628;6.664;2022-12-18T15:19:43;0.90;99.90
9907;DHT22;4992;51.628;6.664;2022-12-18T15:22:19;1.00;99.90
9907;DHT22;4992;51.628;6.664;2022-12-18T15:24:45;0.90;99.90
9907;DHT22;4992;51.628;6.664;2022-12-18T15:27:35;1.00;99.90
9907;DHT22;4992;51.628;6.664;2022-12-18T15:32:36;0.90;99.90
9907;DHT22;4992;51.628;6.664;2022-12-18T15:35:09;0.90;99.90
9907;DHT22;4992;51.628;6.664;2022-12-18T15:37:37;0.90;99.90
9907;DHT22;4992;51.628;6.664;2022-12-18T15:40:05;0.90;99.90
9907;DHT22;4992;51.628;6.664;2022-12-18T15:42:30;0.80;99.90
9907;DHT22;4992;51.628;6.664;2022-12-18T15:45:15;0.70;99.90
9907;DHT22;4992;51.628;6.664;2022-12-18T15:47:41;0.70;99.90
9907;DHT22;4992;51.628;6.664;2022-12-18T15:50:09;0.70;99.90
9907;DHT22;4992;51.628;6.664;2022-12-18T15:52:47;0.70;99.90
9907;DHT22;4992;51.628;6.664;2022-12-18T15:55:18;0.70;99.90
9907;DHT22;4992;51.628;6.664;2022-12-18T15:58:04;0.70;99.90
9907;DHT22;4992;51.628;6.664;2022-12-18T16:00:29;0.70;99.90
9907;DHT22;4992;51.628;6.664;2022-12-18T16:02:55;0.70;99.90
9907;DHT22;4992;51.628;6.664;2022-12-18T16:05:21;0.70;99.90
9907;DHT22;4992;51.628;6.664;2022-12-18T16:07:48;0.70;99.90
9907;DHT22;4992;51.628;6.664;2022-12-18T16:10:14;0.60;99.90
9907;DHT22;4992;51.628;6.664;2022-12-18T16:12:40;0.60;99.90
9907;DHT22;4992;51.628;6.664;2022-12-18T16:15:07;0.60;99.90
9907;DHT22;4992;51.628;6.664;2022-12-18T16:17:32;0.60;99.90
9907;DHT22;4992;51.628;6.664;2022-12-18T16:19:58;0.70;99.90
9907;DHT22;4992;51.628;6.664;2022-12-18T16:22:26;0.70;99.90
9907;DHT22;4992;51.628;6.664;2022-12-18T16:24:53;0.70;99.90
9907;DHT22;4992;51.628;6.664;2022-12-18T16:27:20;0.70;99.90
9907;DHT22;4992;51.628;6.664;2022-12-18T16:29:46;0.70;99.90
9907;DHT22;4992;51.628;6.664;2022-12-18T16:32:15;0.70;99.90
9907;DHT22;4992;51.628;6.664;2022-12-18T16:34:42;0.70;99.90
9907;DHT22;4992;51.628;6.664;2022-12-18T16:37:10;0.70;99.90
9907;DHT22;4992;51.628;6.664;2022-12-18T16:39:37;0.60;99.90
9907;DHT22;4992;51.628;6.664;2022-12-18T16:42:06;0.60;99.90
9907;DHT22;4992;51.628;6.664;2022-12-18T16:44:34;0.60;99.90
9907;DHT22;4992;51.628;6.664;2022-12-18T16:46:59;0.60;99.90
9907;DHT22;4992;51.628;6.664;2022-12-18T16:49:27;0.60;99.90
9907;DHT22;4992;51.628;6.664;2022-12-18T16:51:53;0.60;99.90
9907;DHT22;4992;51.628;6.664;2022-12-18T16:54:19;0.60;99.90
9907;DHT22;4992;51.628;6.664;2022-12-18T16:56:44;0.60;99.90
9907;DHT22;4992;51.628;6.664;2022-12-18T16:59:12;0.60;99.90
9907;DHT22;4992;51.628;6.664;2022-12-18T17:01:38;0.50;99.90
9907;DHT22;4992;51.628;6.664;2022-12-18T17:04:05;0.60;99.90
9907;DHT22;4992;51.628;6.664;2022-12-18T17:06:33;0.60;99.90
9907;DHT22;4992;51.628;6.664;2022-12-18T17:09:01;0.50;99.90
9907;DHT22;4992;51.628;6.664;2022-12-18T17:11:30;0.50;99.90
9907;DHT22;4992;51.628;6.664;2022-12-18T17:13:56;0.50;99.90
9907;DHT22;4992;51.628;6.664;2022-12-18T17:16:22;0.60;99.90
9907;DHT22;4992;51.628;6.664;2022-12-18T17:18:48;0.60;99.90
9907;DHT22;4992;51.628;6.664;2022-12-18T17:21:14;0.60;99.90
9907;DHT22;4992;51.628;6.664;2022-12-18T17:23:41;0.60;99.90
9907;DHT22;4992;51.628;6.664;2022-12-18T17:26:08;0.60;99.90
9907;DHT22;4992;51.628;6.664;2022-12-18T17:28:35;0.60;99.90
9907;DHT22;4992;51.628;6.664;2022-12-18T17:31:02;0.60;99.90
9907;DHT22;4992;51.628;6.664;2022-12-18T17:33:34;0.60;99.90
9907;DHT22;4992;51.628;6.664;2022-12-18T17:35:59;0.60;99.90
9907;DHT22;4992;51.628;6.664;2022-12-18T17:38:25;0.60;99.90
9907;DHT22;4992;51.628;6.664;2022-12-18T17:40:50;0.60;99.90
9907;DHT22;4992;51.628;6.664;2022-12-18T17:43:16;0.60;99.90
9907;DHT22;4992;51.628;6.664;2022-12-18T17:45:41;0.70;99.90
9907;DHT22;4992;51.628;6.664;2022-12-18T17:48:08;0.70;99.90
9907;DHT22;4992;51.628;6.664;2022-12-18T17:50:35;0.60;99.90
9907;DHT22;4992;51.628;6.664;2022-12-18T17:53:01;0.70;99.90